Time;durP1;ratioP1;P1;durP2;ratioP2;P2;SDS_P1;SDS_P2;PMS_P1;PMS_P2;Temp;Humidity;BMP_temperature;BMP_pressure;BME280_temperature;BME280_humidity;BME280_pressure;Samples;Min_cycle;Max_cycle;Signal;HPM_P1;HPM_P2
2021/11/11 00:02:22;;;;;;;33.35;19.25;;;6.40;63.60;;;;;;5033934;28;20028;-65
2021/11/11 00:04:48;;;;;;;33.05;19.80;;;6.40;63.60;;;;;;5036023;28;20047;-65
2021/11/11 00:07:14;;;;;;;32.63;19.17;;;6.40;63.70;;;;;;5038657;28;20058;-65
2021/11/11 00:09:40;;;;;;;33.47;19.20;;;6.50;63.90;;;;;;5030185;28;20556;-65
2021/11/11 00:12:06;;;;;;;32.25;19.25;;;6.50;64.00;;;;;;5040927;28;20098;-65
2021/11/11 00:14:32;;;;;;;32.03;18.83;;;6.50;64.00;;;;;;5040829;28;20506;-65
2021/11/11 00:16:58;;;;;;;34.13;20.80;;;6.50;63.90;;;;;;5042175;28;20033;-65
2021/11/11 00:19:23;;;;;;;33.20;19.65;;;6.50;63.70;;;;;;5043854;28;20021;-65
2021/11/11 00:21:49;;;;;;;31.08;19.00;;;6.40;63.90;;;;;;5047032;28;20034;-65
2021/11/11 00:24:15;;;;;;;30.27;18.63;;;6.40;64.10;;;;;;5036054;28;20049;-65
2021/11/11 00:26:42;;;;;;;32.72;18.30;;;6.30;64.10;;;;;;5034791;28;20043;-65
2021/11/11 00:29:08;;;;;;;35.22;17.70;;;6.30;64.10;;;;;;5032608;28;20033;-65
2021/11/11 00:31:34;;;;;;;29.00;17.10;;;6.30;63.80;;;;;;5033661;28;20039;-65
2021/11/11 00:34:00;;;;;;;33.08;18.42;;;6.20;63.50;;;;;;5030113;28;20025;-65
2021/11/11 00:36:26;;;;;;;37.17;19.83;;;6.20;63.50;;;;;;5041319;28;20503;-65
2021/11/11 00:38:52;;;;;;;34.53;19.13;;;6.10;64.60;;;;;;5030621;28;20021;-65
2021/11/11 00:41:17;;;;;;;31.67;18.42;;;6.10;64.00;;;;;;5041187;28;20166;-65
2021/11/11 00:43:43;;;;;;;33.22;19.23;;;6.00;64.10;;;;;;5037441;28;20032;-65
2021/11/11 00:46:10;;;;;;;33.65;18.90;;;6.00;64.20;;;;;;5032231;28;20029;-65
2021/11/11 00:48:36;;;;;;;32.67;17.52;;;6.00;64.40;;;;;;5040911;28;20037;-65
2021/11/11 00:51:02;;;;;;;34.05;18.10;;;6.00;64.50;;;;;;5036368;28;20033;-65
2021/11/11 00:53:27;;;;;;;31.95;18.10;;;6.00;64.70;;;;;;5038179;28;20033;-65
2021/11/11 00:55:53;;;;;;;27.55;16.60;;;6.00;64.90;;;;;;5043339;28;20045;-65
2021/11/11 00:58:19;;;;;;;28.35;17.35;;;6.10;65.00;;;;;;5042263;28;20033;-65
2021/11/11 01:00:45;;;;;;;30.58;17.25;;;6.00;64.70;;;;;;5039152;28;20037;-65
2021/11/11 01:03:12;;;;;;;28.30;17.88;;;6.00;64.50;;;;;;5040021;28;20116;-65
2021/11/11 01:05:38;;;;;;;32.40;18.00;;;6.00;64.50;;;;;;5035982;28;20036;-65
2021/11/11 01:08:05;;;;;;;28.45;17.23;;;6.00;64.60;;;;;;5040728;28;20033;-65
2021/11/11 01:10:31;;;;;;;27.75;17.20;;;6.00;64.70;;;;;;5040905;28;20033;-65
2021/11/11 01:12:57;;;;;;;28.60;17.15;;;6.00;64.90;;;;;;5012685;28;20028;-65
2021/11/11 01:15:29;;;;;;;27.23;16.02;;;6.00;64.70;;;;;;5046028;28;20025;-65
2021/11/11 01:17:55;;;;;;;25.13;15.80;;;5.90;64.40;;;;;;5033176;28;20104;-65
2021/11/11 01:20:21;;;;;;;27.88;17.02;;;5.90;64.30;;;;;;5032919;28;20112;-65
2021/11/11 01:22:49;;;;;;;26.98;16.45;;;5.80;64.30;;;;;;5032756;28;20021;-65
2021/11/11 01:25:19;;;;;;;28.30;18.27;;;5.80;64.40;;;;;;5029640;28;20448;-65
2021/11/11 01:27:45;;;;;;;29.05;17.48;;;5.80;64.50;;;;;;5046426;28;20396;-65
2021/11/11 01:30:11;;;;;;;25.10;15.30;;;5.80;64.70;;;;;;5033634;28;20485;-65
2021/11/11 01:32:37;;;;;;;26.63;16.13;;;5.80;65.00;;;;;;5033183;28;20033;-65
2021/11/11 01:35:04;;;;;;;30.50;17.10;;;5.80;65.00;;;;;;5031627;28;20104;-65
2021/11/11 01:37:30;;;;;;;31.17;17.90;;;5.80;65.00;;;;;;5031100;28;20033;-65
2021/11/11 01:39:57;;;;;;;31.98;18.95;;;5.80;65.00;;;;;;5039901;28;20076;-65
2021/11/11 01:42:23;;;;;;;30.38;17.40;;;5.80;65.20;;;;;;5035215;28;20037;-65
2021/11/11 01:44:54;;;;;;;34.20;17.98;;;5.70;65.30;;;;;;5030938;28;20074;-65
2021/11/11 01:47:21;;;;;;;29.27;17.50;;;5.70;65.50;;;;;;5041044;28;20041;-65
2021/11/11 01:49:47;;;;;;;30.05;18.70;;;5.70;65.40;;;;;;5040817;28;20511;-65
2021/11/11 01:52:16;;;;;;;28.50;17.50;;;5.60;65.30;;;;;;5030428;28;20026;-65
2021/11/11 01:54:42;;;;;;;26.30;15.55;;;5.60;65.30;;;;;;5031715;28;20102;-65
2021/11/11 01:57:08;;;;;;;25.67;15.57;;;5.60;65.40;;;;;;5033097;28;20559;-65
2021/11/11 01:59:34;;;;;;;24.83;15.73;;;5.50;65.30;;;;;;5031341;28;20164;-65
2021/11/11 02:02:01;;;;;;;26.45;16.38;;;5.50;65.40;;;;;;5032399;28;20025;-65
2021/11/11 02:04:26;;;;;;;26.00;15.68;;;5.50;65.50;;;;;;5032562;28;20024;-65
2021/11/11 02:06:53;;;;;;;27.38;15.27;;;5.50;65.50;;;;;;5029941;28;20033;-65
2021/11/11 02:09:19;;;;;;;25.08;14.85;;;5.50;65.50;;;;;;5045361;28;20037;-65
2021/11/11 02:11:47;;;;;;;24.00;14.93;;;5.50;65.40;;;;;;5041778;28;20024;-65
2021/11/11 02:14:14;;;;;;;25.45;15.57;;;5.50;65.50;;;;;;5034322;28;20041;-65
2021/11/11 02:16:41;;;;;;;25.60;15.15;;;5.50;65.50;;;;;;5036245;28;20033;-65
2021/11/11 02:19:08;;;;;;;26.92;15.43;;;5.50;65.40;;;;;;5037419;28;20060;-65
2021/11/11 02:21:37;;;;;;;27.30;15.70;;;5.40;65.30;;;;;;5036438;28;20095;-65
2021/11/11 02:24:03;;;;;;;24.58;15.95;;;5.40;65.30;;;;;;5037681;28;20049;-65
2021/11/11 02:26:29;;;;;;;29.42;16.45;;;5.40;65.50;;;;;;5035209;28;20037;-65
2021/11/11 02:28:55;;;;;;;25.92;15.90;;;5.40;65.50;;;;;;5044344;28;20108;-65
2021/11/11 02:31:21;;;;;;;23.60;14.77;;;5.40;65.50;;;;;;5033045;28;20036;-65
2021/11/11 02:33:55;;;;;;;26.27;15.65;;;5.30;65.40;;;;;;5033450;28;20026;-65
2021/11/11 02:36:21;;;;;;;22.52;14.20;;;5.30;65.50;;;;;;5036411;28;20030;-65
2021/11/11 02:38:49;;;;;;;26.77;14.00;;;5.30;65.60;;;;;;5042252;28;20116;-65
2021/11/11 02:41:18;;;;;;;29.40;16.30;;;5.20;65.50;;;;;;5040103;28;20030;-65
2021/11/11 02:43:44;;;;;;;23.08;14.77;;;5.20;65.60;;;;;;5035107;28;20060;-65
2021/11/11 02:46:10;;;;;;;25.57;15.00;;;5.20;65.60;;;;;;5031475;28;20470;-65
2021/11/11 02:48:36;;;;;;;24.40;14.57;;;5.20;65.60;;;;;;5035452;28;20112;-65
2021/11/11 02:51:02;;;;;;;22.17;14.30;;;5.20;65.80;;;;;;5046184;28;20029;-66
2021/11/11 02:53:29;;;;;;;25.88;14.27;;;5.20;65.90;;;;;;5037310;28;20404;-65
2021/11/11 02:55:55;;;;;;;22.52;14.05;;;5.10;66.00;;;;;;5033462;28;20044;-65
2021/11/11 02:58:24;;;;;;;22.08;13.73;;;5.20;66.20;;;;;;5032910;28;20139;-65
2021/11/11 03:00:59;;;;;;;22.13;14.00;;;5.10;66.30;;;;;;5031662;28;20064;-65
2021/11/11 03:03:27;;;;;;;25.75;14.75;;;5.20;66.40;;;;;;5044997;28;20036;-65
2021/11/11 03:05:54;;;;;;;23.50;14.15;;;5.10;66.30;;;;;;5031474;28;20492;-65
2021/11/11 03:08:20;;;;;;;19.02;13.35;;;5.10;66.20;;;;;;5034874;28;20095;-65
2021/11/11 03:10:47;;;;;;;22.30;13.25;;;5.10;66.10;;;;;;5042156;28;20025;-65
2021/11/11 03:13:15;;;;;;;19.42;13.27;;;5.00;66.10;;;;;;5045849;28;20092;-65
2021/11/11 03:15:42;;;;;;;19.88;13.15;;;5.00;66.30;;;;;;5034087;28;20038;-65
2021/11/11 03:18:10;;;;;;;24.42;14.32;;;5.00;66.40;;;;;;5035173;28;20078;-65
2021/11/11 03:20:36;;;;;;;20.73;13.82;;;5.00;66.40;;;;;;5034274;28;20596;-65
2021/11/11 03:23:04;;;;;;;21.77;13.80;;;5.00;66.60;;;;;;5033581;28;20171;-65
2021/11/11 03:25:33;;;;;;;20.08;12.50;;;4.90;66.50;;;;;;5034238;28;20037;-65
2021/11/11 03:27:59;;;;;;;20.27;12.50;;;4.90;66.80;;;;;;5041148;28;20505;-65
2021/11/11 03:30:26;;;;;;;20.63;12.57;;;4.90;66.80;;;;;;5044395;28;20033;-65
2021/11/11 03:32:54;;;;;;;21.00;13.15;;;4.90;66.90;;;;;;5042306;28;20112;-65
2021/11/11 03:35:19;;;;;;;22.05;13.70;;;4.90;67.00;;;;;;5037246;28;20044;-65
2021/11/11 03:37:47;;;;;;;21.50;13.55;;;4.90;67.00;;;;;;5038789;28;20029;-65
2021/11/11 03:40:17;;;;;;;20.92;12.52;;;4.90;67.10;;;;;;5035996;28;20479;-65
2021/11/11 03:42:46;;;;;;;25.23;13.20;;;4.90;67.10;;;;;;5042948;28;20021;-65
2021/11/11 03:45:12;;;;;;;21.42;11.98;;;4.80;66.90;;;;;;5036994;28;20030;-65
2021/11/11 03:47:39;;;;;;;20.73;12.73;;;4.80;66.80;;;;;;5038852;28;20044;-65
2021/11/11 03:50:06;;;;;;;18.70;12.18;;;4.70;66.70;;;;;;5033359;28;20033;-65
2021/11/11 03:52:32;;;;;;;19.98;11.95;;;4.70;66.70;;;;;;5035008;28;20029;-65
2021/11/11 03:54:58;;;;;;;20.17;11.98;;;4.70;66.60;;;;;;5044509;28;20068;-65
2021/11/11 03:57:24;;;;;;;17.67;11.38;;;4.60;66.50;;;;;;5050555;28;20044;-65
2021/11/11 03:59:50;;;;;;;20.73;11.57;;;4.60;66.50;;;;;;5034754;28;20116;-65
2021/11/11 04:02:23;;;;;;;19.98;12.13;;;4.60;66.40;;;;;;5040612;28;20037;-65
2021/11/11 04:04:50;;;;;;;21.58;12.80;;;4.50;66.50;;;;;;5041089;28;20070;-65
2021/11/11 04:07:16;;;;;;;20.83;11.88;;;4.50;66.60;;;;;;5036625;28;20033;-65
2021/11/11 04:09:41;;;;;;;21.73;12.00;;;4.50;66.70;;;;;;5048414;28;20021;-65
2021/11/11 04:12:07;;;;;;;21.60;13.23;;;4.50;66.80;;;;;;5037866;28;20096;-65
2021/11/11 04:14:33;;;;;;;23.92;13.57;;;4.60;67.00;;;;;;5038438;28;20060;-65
2021/11/11 04:16:59;;;;;;;19.15;12.65;;;4.60;67.20;;;;;;5044463;28;20056;-65
2021/11/11 04:19:26;;;;;;;23.35;15.45;;;4.60;67.10;;;;;;5045153;28;20025;-65
2021/11/11 04:21:52;;;;;;;57.35;16.23;;;4.60;66.90;;;;;;5033811;28;20029;-65
2021/11/11 04:24:17;;;;;;;47.40;15.05;;;4.60;67.00;;;;;;5036438;28;20338;-65
2021/11/11 04:29:26;;;;;;;25.40;15.38;;;4.60;67.40;;;;;;5034784;28;20559;-65
2021/11/11 04:32:03;;;;;;;36.28;14.60;;;4.50;67.60;;;;;;5041134;28;20155;-65
2021/11/11 04:34:31;;;;;;;25.98;14.93;;;4.50;67.80;;;;;;5044162;28;20098;-65
2021/11/11 05:03:39;;;;;;;22.85;13.55;;;4.30;67.70;;;;;;5047638;28;20388;-65
2021/11/11 05:06:05;;;;;;;19.98;12.38;;;4.30;67.80;;;;;;5034186;28;20127;-65
2021/11/11 05:08:31;;;;;;;20.48;12.63;;;4.30;68.00;;;;;;5036258;28;20463;-65
2021/11/11 05:10:58;;;;;;;20.73;13.20;;;4.30;67.90;;;;;;5034808;28;20044;-65
2021/11/11 05:13:25;;;;;;;24.92;13.27;;;4.20;67.90;;;;;;5031130;28;20025;-65
2021/11/11 05:15:51;;;;;;;21.13;13.18;;;4.20;68.10;;;;;;5028523;28;20048;-66
2021/11/11 05:18:17;;;;;;;20.58;12.88;;;4.20;68.10;;;;;;5042609;28;20025;-65
2021/11/11 05:20:42;;;;;;;21.25;12.32;;;4.20;68.20;;;;;;5043572;28;20078;-65
2021/11/11 05:23:08;;;;;;;22.27;13.70;;;4.20;69.20;;;;;;5039006;28;20521;-65
2021/11/11 05:25:35;;;;;;;25.90;14.98;;;4.20;68.20;;;;;;5040617;28;20507;-65
2021/11/11 05:28:01;;;;;;;22.88;13.77;;;4.20;68.30;;;;;;5034067;28;20547;-65
2021/11/11 05:30:28;;;;;;;21.92;13.85;;;4.20;68.50;;;;;;5050915;28;20040;-65
2021/11/11 05:32:54;;;;;;;22.63;13.38;;;4.20;68.40;;;;;;5038960;28;20037;-65
2021/11/11 05:35:20;;;;;;;22.25;13.52;;;4.20;68.40;;;;;;5042136;28;20407;-65
2021/11/11 05:37:47;;;;;;;21.55;13.52;;;4.10;68.30;;;;;;5034642;28;20025;-65
2021/11/11 05:40:15;;;;;;;20.67;13.23;;;4.10;68.20;;;;;;5032055;28;20400;-65
2021/11/11 05:42:41;;;;;;;24.38;14.50;;;4.10;68.10;;;;;;5046161;28;20060;-65
2021/11/11 05:45:08;;;;;;;21.30;13.57;;;4.10;68.00;;;;;;5033682;28;20033;-66
2021/11/11 05:47:34;;;;;;;20.50;13.95;;;4.00;68.10;;;;;;5036774;28;20041;-65
2021/11/11 05:50:00;;;;;;;22.42;13.15;;;4.10;68.20;;;;;;5034811;28;20116;-65
2021/11/11 05:52:26;;;;;;;20.55;13.27;;;4.00;68.20;;;;;;5035872;28;20104;-65
2021/11/11 05:54:51;;;;;;;19.63;13.27;;;4.00;68.30;;;;;;5032749;28;20037;-65
2021/11/11 05:57:17;;;;;;;20.45;12.70;;;4.00;68.40;;;;;;5038819;28;20029;-66
2021/11/11 05:59:44;;;;;;;21.67;13.23;;;4.00;68.40;;;;;;5036768;28;20025;-65
2021/11/11 06:02:11;;;;;;;20.73;13.48;;;4.00;68.50;;;;;;5036508;28;20060;-65
2021/11/11 06:04:39;;;;;;;19.88;13.45;;;4.00;68.40;;;;;;5036995;28;20021;-65
2021/11/11 06:07:05;;;;;;;22.63;14.35;;;4.00;68.40;;;;;;5039429;28;20112;-65
2021/11/11 06:09:31;;;;;;;23.00;14.32;;;4.00;68.50;;;;;;5044216;28;20045;-65
2021/11/11 06:11:57;;;;;;;23.15;13.98;;;3.90;68.60;;;;;;5035732;28;20538;-65
2021/11/11 06:14:23;;;;;;;19.70;13.05;;;3.90;68.90;;;;;;5034360;28;20030;-65
2021/11/11 06:16:49;;;;;;;21.67;13.18;;;3.90;69.00;;;;;;5036018;28;20031;-65
2021/11/11 06:19:16;;;;;;;21.63;13.18;;;3.90;69.10;;;;;;5036315;28;20025;-65
2021/11/11 06:21:42;;;;;;;19.90;12.38;;;3.90;69.10;;;;;;5034963;28;20025;-65
2021/11/11 06:24:08;;;;;;;20.77;12.95;;;3.90;69.00;;;;;;5036698;28;20056;-65
2021/11/11 06:26:34;;;;;;;19.10;12.07;;;3.80;69.00;;;;;;5034316;28;20092;-65
2021/11/11 06:29:01;;;;;;;19.55;13.23;;;3.80;69.00;;;;;;5036257;28;20029;-65
2021/11/11 06:31:27;;;;;;;18.48;12.85;;;3.80;69.10;;;;;;5035586;28;20491;-65
2021/11/11 06:33:53;;;;;;;20.38;13.15;;;3.80;69.20;;;;;;5030414;28;20452;-65
2021/11/11 06:36:19;;;;;;;23.23;13.85;;;3.80;69.30;;;;;;5038810;28;20060;-66
2021/11/11 06:38:45;;;;;;;19.35;12.52;;;3.80;69.40;;;;;;5033889;28;20477;-65
2021/11/11 06:41:12;;;;;;;19.83;12.88;;;3.80;69.70;;;;;;5038512;28;20032;-65
2021/11/11 06:43:38;;;;;;;22.77;13.68;;;3.80;69.70;;;;;;5034455;28;20029;-65
2021/11/11 06:46:04;;;;;;;19.02;12.63;;;3.80;69.70;;;;;;5037307;28;20036;-65
2021/11/11 06:48:30;;;;;;;19.48;13.15;;;3.70;69.80;;;;;;5044105;28;20045;-65
2021/11/11 06:50:56;;;;;;;21.48;13.15;;;3.70;69.80;;;;;;5038045;28;20037;-66
2021/11/11 06:53:22;;;;;;;21.17;12.50;;;3.70;69.80;;;;;;5036309;28;20400;-67
2021/11/11 06:55:48;;;;;;;21.52;13.52;;;3.70;69.90;;;;;;5044387;28;20496;-67
2021/11/11 06:58:19;;;;;;;19.75;12.75;;;3.70;69.90;;;;;;5044734;28;20566;-66
2021/11/11 07:00:45;;;;;;;21.63;13.00;;;3.70;70.00;;;;;;5032474;28;20079;-67
2021/11/11 07:03:11;;;;;;;19.52;12.65;;;3.70;70.10;;;;;;5038859;28;20033;-66
2021/11/11 07:05:37;;;;;;;19.85;12.65;;;3.80;70.30;;;;;;5037939;28;20025;-66
2021/11/11 07:08:05;;;;;;;18.75;12.35;;;3.80;70.40;;;;;;5040411;28;20033;-66
2021/11/11 07:10:31;;;;;;;18.73;11.80;;;3.80;70.20;;;;;;5030840;28;20127;-67
2021/11/11 07:12:57;;;;;;;17.20;12.30;;;3.80;69.90;;;;;;5041846;28;20488;-67
2021/11/11 07:15:22;;;;;;;22.80;12.43;;;3.80;69.70;;;;;;5035654;28;20449;-67
2021/11/11 07:17:48;;;;;;;18.83;12.30;;;3.80;69.50;;;;;;5034244;28;20065;-65
2021/11/11 07:20:16;;;;;;;20.02;12.82;;;3.90;69.70;;;;;;5032441;28;20057;-65
2021/11/11 07:22:43;;;;;;;17.15;12.13;;;3.90;69.50;;;;;;5034531;28;20048;-65
2021/11/11 07:25:10;;;;;;;18.92;11.70;;;3.90;69.40;;;;;;5043012;28;20551;-65
2021/11/11 07:27:37;;;;;;;17.80;12.75;;;3.90;69.20;;;;;;5035453;28;20040;-66
2021/11/11 07:30:11;;;;;;;20.00;12.35;;;4.00;70.10;;;;;;5030675;28;20026;-66
2021/11/11 07:32:37;;;;;;;19.73;12.07;;;4.00;69.00;;;;;;5021480;28;20029;-65
2021/11/11 07:35:08;;;;;;;20.17;12.25;;;4.10;69.00;;;;;;5029407;28;20056;-65
2021/11/11 07:37:34;;;;;;;18.92;12.32;;;4.20;69.00;;;;;;5030507;28;20022;-66
2021/11/11 07:39:59;;;;;;;28.17;15.25;;;4.20;68.80;;;;;;5022568;28;20025;-65
2021/11/11 07:42:25;;;;;;;19.83;12.88;;;4.40;68.70;;;;;;5039934;28;20044;-66
2021/11/11 07:44:51;;;;;;;17.42;11.88;;;4.80;68.30;;;;;;5018817;28;20034;-66
2021/11/11 07:47:25;;;;;;;17.60;12.07;;;5.30;67.20;;;;;;5029609;28;20033;-66
2021/11/11 07:49:51;;;;;;;17.63;12.15;;;5.80;66.00;;;;;;5037295;28;20021;-66
2021/11/11 07:52:17;;;;;;;19.55;11.88;;;6.30;65.00;;;;;;5034940;28;20031;-65
2021/11/11 07:54:43;;;;;;;18.38;11.85;;;6.80;64.00;;;;;;5020038;28;20506;-65
2021/11/11 07:57:08;;;;;;;17.38;12.10;;;7.20;63.00;;;;;;5031990;28;20667;-66
2021/11/11 07:59:34;;;;;;;17.55;12.38;;;7.70;62.00;;;;;;5039315;28;20021;-66
2021/11/11 08:02:02;;;;;;;15.98;12.02;;;8.20;61.10;;;;;;5040568;28;20026;-66
2021/11/11 08:04:27;;;;;;;16.02;11.80;;;8.70;59.90;;;;;;5029820;28;20030;-66
2021/11/11 08:06:53;;;;;;;19.20;11.90;;;9.20;58.70;;;;;;5038039;28;20052;-65
2021/11/11 08:09:19;;;;;;;21.35;12.80;;;9.50;57.60;;;;;;5049793;28;20116;-65
2021/11/11 08:11:45;;;;;;;16.95;12.38;;;9.70;57.10;;;;;;5041535;28;20025;-66
2021/11/11 08:14:10;;;;;;;19.17;13.80;;;10.10;56.40;;;;;;5041897;28;20115;-66
2021/11/11 08:16:36;;;;;;;18.90;12.65;;;10.20;55.50;;;;;;5033765;28;20090;-66
2021/11/11 08:19:02;;;;;;;15.18;12.13;;;10.90;54.60;;;;;;5041465;28;20064;-66
2021/11/11 08:21:28;;;;;;;16.20;12.10;;;11.60;52.90;;;;;;5030767;28;20494;-65
2021/11/11 08:26:29;;;;;;;15.43;12.88;;;13.00;50.00;;;;;;4028910;22;20101;-66
2021/11/11 08:28:55;;;;;;;15.05;11.77;;;13.80;48.40;;;;;;5055113;28;20545;-64
2021/11/11 08:31:20;;;;;;;17.50;12.32;;;14.40;46.80;;;;;;5055831;28;20108;-63
2021/11/11 08:33:46;;;;;;;18.45;13.60;;;15.10;45.40;;;;;;5045563;28;20033;-64
2021/11/11 08:36:16;;;;;;;17.92;16.08;;;15.70;44.50;;;;;;5046554;28;20028;-63
2021/11/11 08:38:42;;;;;;;18.67;15.68;;;16.20;43.60;;;;;;5045673;28;20033;-65
2021/11/11 08:41:08;;;;;;;17.77;15.98;;;16.60;42.70;;;;;;5044545;28;20082;-64
2021/11/11 08:43:33;;;;;;;17.88;16.13;;;16.40;42.40;;;;;;5044793;28;20033;-65
2021/11/11 08:45:59;;;;;;;20.02;17.50;;;16.10;42.40;;;;;;5039925;28;20029;-65
2021/11/11 08:48:25;;;;;;;19.33;17.40;;;16.10;42.50;;;;;;5044932;28;20118;-65
2021/11/11 08:50:51;;;;;;;16.77;13.27;;;16.50;42.30;;;;;;5041589;28;20082;-65
2021/11/11 08:53:17;;;;;;;16.70;12.48;;;17.40;41.60;;;;;;5042973;28;20037;-65
2021/11/11 08:55:43;;;;;;;16.85;12.85;;;18.30;39.90;;;;;;5046537;28;20040;-64
2021/11/11 08:58:12;;;;;;;20.20;16.52;;;19.10;38.40;;;;;;5048443;28;20033;-65
2021/11/11 09:00:45;;;;;;;23.35;21.08;;;19.80;37.00;;;;;;5052319;28;20021;-65
2021/11/11 09:03:12;;;;;;;20.77;18.77;;;20.40;35.90;;;;;;5056238;28;20402;-65
2021/11/11 09:05:39;;;;;;;21.00;19.00;;;20.90;34.80;;;;;;5045801;28;20025;-64
2021/11/11 09:08:06;;;;;;;19.50;17.50;;;21.50;34.00;;;;;;5049183;28;20044;-64
2021/11/11 09:10:32;;;;;;;19.60;17.58;;;22.00;33.30;;;;;;5051600;28;20155;-64
2021/11/11 09:12:58;;;;;;;18.35;16.42;;;22.60;32.50;;;;;;5060864;28;20390;-65
2021/11/11 09:15:28;;;;;;;19.08;15.75;;;23.10;31.80;;;;;;5047788;28;20096;-66
2021/11/11 09:17:56;;;;;;;17.52;15.65;;;23.60;31.00;;;;;;5051599;28;20029;-64
2021/11/11 09:20:23;;;;;;;18.38;16.48;;;24.10;30.50;;;;;;5041645;28;20119;-64
2021/11/11 09:22:51;;;;;;;22.55;20.45;;;24.50;29.90;;;;;;5043922;28;20029;-64
2021/11/11 09:25:17;;;;;;;30.83;28.30;;;25.00;29.20;;;;;;5048198;28;20104;-65
2021/11/11 09:27:44;;;;;;;25.55;23.35;;;25.40;28.90;;;;;;5041292;28;20053;-64
2021/11/11 09:30:19;;;;;;;25.15;22.95;;;25.80;28.50;;;;;;5044939;28;20032;-65
2021/11/11 09:32:46;;;;;;;26.80;24.50;;;26.00;27.90;;;;;;5050217;28;20403;-65
2021/11/11 09:35:12;;;;;;;24.13;22.02;;;26.30;27.60;;;;;;5044199;28;20036;-65
2021/11/11 09:37:38;;;;;;;24.65;22.55;;;26.60;27.20;;;;;;5053623;28;20035;-65
2021/11/11 09:40:07;;;;;;;24.35;22.10;;;26.90;27.00;;;;;;5049034;28;20110;-65
2021/11/11 09:42:34;;;;;;;22.58;20.48;;;27.10;26.70;;;;;;5034906;28;20083;-65
2021/11/11 09:45:01;;;;;;;22.13;19.92;;;27.30;26.60;;;;;;5039512;28;20021;-65
2021/11/11 09:47:27;;;;;;;21.63;19.42;;;27.30;26.60;;;;;;5047724;28;20037;-65
2021/11/11 09:49:53;;;;;;;25.17;22.55;;;26.10;27.50;;;;;;5047606;28;20704;-64
2021/11/11 09:52:20;;;;;;;19.17;17.27;;;23.90;29.40;;;;;;5044919;28;20573;-65
2021/11/11 10:00:16;;;;;;;17.17;13.70;;;24.40;30.70;;;;;;5042930;28;20051;-63
2021/11/11 10:02:42;;;;;;;18.15;16.40;;;26.10;28.90;;;;;;5044043;28;20059;-63
2021/11/11 10:05:08;;;;;;;18.58;16.45;;;27.30;27.70;;;;;;5044214;28;20029;-63
2021/11/11 10:07:34;;;;;;;17.13;15.32;;;28.40;26.90;;;;;;5047776;28;20506;-63
2021/11/11 10:10:00;;;;;;;17.52;15.73;;;29.30;26.20;;;;;;5044543;28;20467;-63
2021/11/11 10:12:26;;;;;;;17.75;15.85;;;30.00;25.40;;;;;;5041154;28;20036;-63
2021/11/11 10:15:05;;;;;;;19.25;15.95;;;30.70;24.80;;;;;;5043719;28;20029;-64
2021/11/11 10:17:43;;;;;;;17.65;15.80;;;31.20;24.10;;;;;;5042498;28;20025;-63
2021/11/11 10:20:10;;;;;;;19.63;15.10;;;31.70;23.60;;;;;;5045504;28;20080;-64
2021/11/11 10:22:38;;;;;;;19.20;16.05;;;32.10;23.20;;;;;;5051805;28;20104;-64
2021/11/11 10:25:11;;;;;;;22.20;16.60;;;32.40;22.60;;;;;;5063916;28;20039;-63
2021/11/11 10:27:43;;;;;;;20.85;17.02;;;32.40;21.90;;;;;;5049758;28;20060;-64
2021/11/11 10:30:12;;;;;;;20.65;16.90;;;32.30;21.90;;;;;;5052109;28;20376;-63
2021/11/11 10:32:48;;;;;;;19.23;16.50;;;32.50;21.80;;;;;;5052442;28;20526;-63
2021/11/11 10:35:26;;;;;;;20.42;17.38;;;32.90;21.70;;;;;;5045608;28;20368;-63
2021/11/11 10:38:05;;;;;;;21.77;14.23;;;33.20;21.40;;;;;;5048956;28;20051;-63
2021/11/11 10:40:43;;;;;;;18.55;13.02;;;33.60;21.20;;;;;;5049856;28;20056;-64
2021/11/11 10:43:11;;;;;;;21.33;14.13;;;33.90;21.10;;;;;;5052212;28;20029;-63
2021/11/11 10:45:40;;;;;;;18.48;13.80;;;34.30;20.80;;;;;;5039062;28;20102;-64
2021/11/11 10:48:09;;;;;;;18.27;12.68;;;34.50;21.10;;;;;;5051017;28;20045;-64
2021/11/11 10:50:39;;;;;;;17.77;12.70;;;34.80;20.10;;;;;;5050406;28;20071;-64
2021/11/11 10:53:07;;;;;;;18.55;13.27;;;35.30;20.10;;;;;;5053123;28;20104;-64
2021/11/11 10:55:35;;;;;;;17.58;12.95;;;35.80;19.60;;;;;;5033813;28;20099;-64
2021/11/11 10:58:14;;;;;;;19.65;12.20;;;36.10;19.50;;;;;;5044884;28;20029;-64
2021/11/11 11:07:24;;;;;;;18.92;11.60;;;36.50;18.10;;;;;;5051780;28;20102;-64
2021/11/11 11:10:05;;;;;;;17.00;11.27;;;36.60;18.10;;;;;;5049432;28;20437;-64
2021/11/11 11:12:31;;;;;;;16.52;11.23;;;36.70;17.90;;;;;;5050166;28;20135;-65
2021/11/11 11:14:56;;;;;;;16.70;10.80;;;37.00;17.70;;;;;;5049337;28;20126;-65
2021/11/11 11:17:22;;;;;;;15.75;10.23;;;37.10;17.70;;;;;;5051552;28;20024;-65
2021/11/11 11:19:49;;;;;;;15.68;10.90;;;37.30;17.40;;;;;;5047248;28;20065;-65
2021/11/11 11:22:24;;;;;;;14.43;10.48;;;37.20;17.30;;;;;;5055434;28;20399;-65
2021/11/11 11:25:02;;;;;;;14.98;10.57;;;37.30;17.30;;;;;;5053119;28;20043;-65
2021/11/11 11:27:34;;;;;;;14.48;10.82;;;37.20;16.90;;;;;;5053121;28;20144;-64
2021/11/11 11:30:10;;;;;;;16.98;10.82;;;36.80;17.20;;;;;;5051973;28;20021;-64
2021/11/11 11:32:40;;;;;;;16.42;9.93;;;36.60;17.30;;;;;;5051700;28;20103;-65
2021/11/11 11:35:07;;;;;;;17.20;10.18;;;36.60;17.40;;;;;;5050307;28;20060;-65
2021/11/11 11:37:35;;;;;;;14.82;10.50;;;36.50;17.40;;;;;;5054626;28;20107;-65
2021/11/11 11:40:03;;;;;;;17.40;10.70;;;36.30;17.50;;;;;;5060069;28;20024;-65
2021/11/11 11:42:35;;;;;;;15.55;10.48;;;36.30;17.70;;;;;;5042231;28;20025;-64
2021/11/11 11:45:15;;;;;;;16.45;10.32;;;36.30;17.80;;;;;;5046221;28;20064;-64
2021/11/11 11:47:46;;;;;;;;;;;36.60;17.80;;;;;;5048504;28;20068;-64
2021/11/11 11:50:22;;;;;;;33.97;18.80;;;37.00;17.80;;;;;;5048598;28;19908;-64
2021/11/11 11:52:54;;;;;;;15.52;11.15;;;37.50;17.40;;;;;;5046181;28;20029;-64
2021/11/11 11:55:28;;;;;;;15.32;10.82;;;37.90;17.20;;;;;;5047294;28;20040;-64
2021/11/11 11:58:01;;;;;;;16.25;11.32;;;38.20;17.10;;;;;;5049524;28;20033;-64
2021/11/11 12:14:07;;;;;;;15.93;10.63;;;38.80;15.50;;;;;;4969438;28;20602;-64
2021/11/11 12:39:59;;;;;;;14.27;9.65;;;36.00;17.40;;;;;;4964701;28;20090;-65
2021/11/11 12:42:31;;;;;;;15.05;9.80;;;36.20;17.50;;;;;;4969949;28;20034;-64
2021/11/11 12:45:25;;;;;;;13.18;9.32;;;36.20;17.50;;;;;;4969662;28;20414;-64
2021/11/11 12:48:16;;;;;;;14.95;9.90;;;35.70;17.90;;;;;;4967185;28;20067;-64
2021/11/11 12:51:04;;;;;;;15.50;10.55;;;34.30;19.20;;;;;;4998090;28;20169;-64
2021/11/11 12:53:49;;;;;;;15.90;10.48;;;31.20;20.90;;;;;;5044791;28;20032;-64
2021/11/11 12:56:19;;;;;;;13.50;8.93;;;29.40;22.50;;;;;;5044557;28;20040;-62
2021/11/11 12:58:47;;;;;;;14.67;9.10;;;28.40;23.10;;;;;;5044658;28;20063;-64
2021/11/11 13:01:26;;;;;;;15.25;8.82;;;27.60;23.60;;;;;;5053520;28;20310;-64
2021/11/11 13:04:08;;;;;;;12.57;9.27;;;27.00;24.20;;;;;;5037473;28;20033;-64
2021/11/11 13:07:05;;;;;;;12.70;8.50;;;26.60;24.40;;;;;;5049436;28;20426;-65
2021/11/11 13:09:37;;;;;;;12.70;8.48;;;26.30;24.40;;;;;;5041259;28;20033;-65
2021/11/11 13:12:05;;;;;;;12.15;8.90;;;26.40;24.30;;;;;;5053252;28;20079;-65
2021/11/11 13:14:55;;;;;;;12.05;8.27;;;27.70;23.40;;;;;;5044012;28;20503;-65
2021/11/11 13:17:24;;;;;;;10.77;7.70;;;30.50;21.50;;;;;;5045298;28;20668;-65
2021/11/11 13:20:01;;;;;;;10.80;7.47;;;32.30;20.30;;;;;;5059456;28;20287;-66
2021/11/11 13:25:55;;;;;;;11.55;7.18;;;34.00;18.20;;;;;;5054807;28;20033;-66
2021/11/11 16:03:08;;;;;;;10.68;6.93;;;17.70;39.30;;;;;;5046660;28;20064;-65
2021/11/11 16:24:12;;;;;;;10.55;6.22;;;16.50;42.50;;;;;;5046305;28;20021;-66
2021/11/11 16:26:38;;;;;;;9.52;5.60;;;16.40;42.90;;;;;;5050067;28;20059;-65
2021/11/11 16:29:05;;;;;;;11.25;6.45;;;16.20;43.20;;;;;;5046852;28;20036;-64
2021/11/11 16:31:31;;;;;;;12.57;7.53;;;16.10;43.50;;;;;;5049427;28;20056;-64
2021/11/11 16:33:59;;;;;;;10.75;6.85;;;16.00;43.90;;;;;;5042440;28;20021;-64
2021/11/11 16:36:27;;;;;;;12.45;6.70;;;15.90;44.40;;;;;;5047993;28;20040;-64
2021/11/11 16:38:54;;;;;;;11.48;6.93;;;15.80;44.80;;;;;;5051596;28;20043;-65
2021/11/11 16:41:21;;;;;;;10.93;7.00;;;15.70;45.20;;;;;;5049492;28;20021;-65
2021/11/11 16:43:47;;;;;;;13.88;8.43;;;15.50;45.60;;;;;;5045321;28;20035;-65
2021/11/11 16:46:14;;;;;;;15.50;7.70;;;15.40;46.40;;;;;;5038071;28;20431;-65
2021/11/11 16:48:40;;;;;;;11.65;7.88;;;15.30;46.60;;;;;;5045881;28;20029;-65
2021/11/11 16:51:08;;;;;;;14.80;8.95;;;15.20;46.50;;;;;;5039189;28;20067;-65
2021/11/11 16:53:36;;;;;;;16.73;8.70;;;15.10;46.60;;;;;;5037532;28;20033;-65
2021/11/11 16:56:04;;;;;;;16.45;8.25;;;15.00;46.70;;;;;;5044935;28;20429;-65